Archival Weather

Snohomish County (Paine Fld)

Everett, Washington (KPAE)

Report from: Tuesday, November 7, 2023 4:29 AM PST
Current time: Monday, June 17, 2024 1:23 AM PDT

Current weather – Weather history – Daily summaries
Weather forecast

Present weatherHeavy rain, mist
Temperature10.0°C (50.0°F)
Wind chill8.2°C (46.7°F)
Dew point8.9°C (48.0°F)
Winds 7 kts (3.6 m/s, 8.1 mph) West-Northwest (290°)
Visibility1.8 mi. (2.8 km)
Clouds Ceiling: Overcast 200 ft. (61 m)
Altimeter29.83 in.Hg (1010 mB)
Precipitiation0.07 in. (2 mm)
Relative humidity93 %
Density altitude-331 ft. (-101 m)
Remarks Fully automated report
Automated weather observing station with precipitation discriminator
Flight conditions Low Instrument Meteorological Conditions
Raw dataKPAE 071229Z AUTO 29007KT 1 3/4SM R16R/2800VP6000FT +RA BR OVC002 10/09 A2983 RMK AO2 P0007 T01000089
An error has occurred. This application may no longer respond until reloaded. Reload 🗙